createdAt,value
2023-05-18T00:02:08.423Z,63.54
2023-05-18T00:04:39.727Z,63.23
2023-05-18T00:07:10.035Z,63.59
2023-05-18T00:09:41.505Z,63.53
2023-05-18T00:12:12.142Z,63.48
2023-05-18T00:14:45.044Z,63.40
2023-05-18T00:17:16.265Z,63.33
2023-05-18T00:19:46.971Z,63.50
2023-05-18T00:22:18.340Z,64.06
2023-05-18T00:24:49.068Z,64.51
2023-05-18T00:27:19.537Z,64.59
2023-05-18T00:29:52.498Z,64.58
2023-05-18T00:32:23.138Z,64.65
2023-05-18T00:34:55.087Z,65.11
2023-05-18T00:37:26.340Z,65.21
2023-05-18T00:39:56.642Z,65.36
2023-05-18T00:42:26.858Z,65.54
2023-05-18T00:45:00.242Z,65.71
2023-05-18T00:47:30.459Z,65.83
2023-05-18T00:50:00.855Z,66.00
2023-05-18T00:52:33.946Z,66.02
2023-05-18T00:55:04.610Z,66.13
2023-05-18T00:57:36.926Z,66.40
2023-05-18T01:00:14.076Z,66.20
2023-05-18T01:02:46.118Z,66.11
2023-05-18T01:05:18.289Z,66.26
2023-05-18T01:07:49.157Z,66.46
2023-05-18T01:10:21.521Z,66.70
2023-05-18T01:12:55.979Z,67.07
2023-05-18T01:15:34.144Z,66.77
2023-05-18T01:18:17.874Z,66.72
2023-05-18T01:20:51.001Z,66.39
2023-05-18T01:23:47.052Z,66.94
2023-05-18T01:26:24.956Z,66.98
2023-05-18T01:28:57.004Z,67.08
2023-05-18T01:31:27.383Z,67.80
2023-05-18T01:33:57.631Z,67.98
2023-05-18T01:36:27.836Z,68.18
2023-05-18T01:39:02.159Z,67.97
2023-05-18T01:41:39.522Z,68.40
2023-05-18T01:44:15.995Z,68.36
2023-05-18T01:46:51.707Z,68.31
2023-05-18T01:49:31.796Z,68.50
2023-05-18T01:52:06.723Z,68.53
2023-05-18T01:54:37.254Z,68.60
2023-05-18T01:57:11.970Z,68.64
2023-05-18T01:59:42.296Z,68.65
2023-05-18T02:02:12.543Z,68.29
2023-05-18T02:04:42.790Z,68.29
2023-05-18T02:07:15.206Z,68.28
2023-05-18T02:09:46.130Z,68.62
2023-05-18T02:12:18.922Z,68.66
2023-05-18T02:14:49.200Z,68.18
2023-05-18T02:17:20.197Z,68.25
2023-05-18T02:19:51.622Z,68.66
2023-05-18T02:22:21.931Z,68.59
2023-05-18T02:24:52.213Z,68.76
2023-05-18T02:27:25.006Z,68.78
2023-05-18T02:29:55.247Z,68.73
2023-05-18T02:32:28.114Z,68.24
2023-05-18T02:34:58.353Z,68.58
2023-05-18T02:37:28.628Z,68.54
2023-05-18T02:39:58.936Z,68.50
2023-05-18T02:42:32.175Z,68.69
2023-05-18T02:45:03.401Z,68.91
2023-05-18T02:47:34.125Z,68.91
2023-05-18T02:50:04.687Z,69.19
2023-05-18T02:52:35.987Z,69.38
2023-05-18T02:55:07.446Z,69.58
2023-05-18T02:58:00.798Z,69.42
2023-05-18T03:00:53.189Z,69.19
2023-05-18T03:03:24.050Z,69.58
2023-05-18T03:05:55.842Z,69.45
2023-05-18T03:08:27.221Z,69.63
2023-05-18T03:10:57.993Z,69.74
2023-05-18T03:13:30.808Z,69.72
2023-05-18T03:16:01.092Z,69.54
2023-05-18T03:18:32.377Z,69.40
2023-05-18T03:21:03.641Z,69.69
2023-05-18T03:23:33.963Z,69.74
2023-05-18T03:26:10.834Z,69.88
2023-05-18T03:28:43.768Z,70.08
2023-05-18T03:31:13.955Z,70.25
2023-05-18T03:33:44.427Z,70.35
2023-05-18T03:36:16.910Z,70.46
2023-05-18T03:38:48.111Z,70.58
2023-05-18T03:41:19.520Z,70.66
2023-05-18T03:43:52.697Z,70.47
2023-05-18T03:46:23.172Z,70.81
2023-05-18T03:48:54.087Z,70.52
2023-05-18T03:51:29.723Z,70.28
2023-05-18T03:54:00.110Z,70.07
2023-05-18T03:56:31.476Z,69.81
2023-05-18T03:59:05.203Z,69.86
2023-05-18T04:01:36.522Z,70.16
2023-05-18T04:04:07.572Z,70.35
2023-05-18T04:06:40.371Z,70.43
2023-05-18T04:09:12.886Z,70.49
2023-05-18T04:11:43.119Z,70.41
2023-05-18T04:14:17.325Z,70.24
2023-05-18T04:16:48.380Z,69.89
2023-05-18T04:19:19.266Z,69.36
2023-05-18T04:21:49.598Z,69.19
2023-05-18T04:24:22.826Z,68.68
2023-05-18T04:26:53.031Z,69.19
2023-05-18T04:29:25.960Z,69.05
2023-05-18T04:32:01.279Z,68.17
2023-05-18T04:34:31.814Z,68.43
2023-05-18T04:37:06.082Z,68.92
2023-05-18T04:39:39.717Z,68.66
2023-05-18T04:42:14.308Z,68.50
2023-05-18T04:44:49.119Z,67.88
2023-05-18T04:47:19.361Z,68.09
2023-05-18T04:49:52.490Z,68.12
2023-05-18T04:52:23.362Z,67.53
2023-05-18T04:54:53.547Z,67.32
2023-05-18T04:57:23.925Z,67.18
2023-05-18T04:59:58.530Z,67.44
2023-05-18T05:02:28.913Z,67.51
2023-05-18T05:04:59.258Z,67.87
2023-05-18T05:07:29.423Z,67.31
2023-05-18T05:09:59.621Z,66.99
2023-05-18T05:12:29.789Z,66.11
2023-05-18T05:15:03.074Z,65.75
2023-05-18T05:17:33.535Z,65.47
2023-05-18T05:20:03.936Z,65.47
2023-05-18T05:22:35.178Z,65.90
2023-05-18T05:25:07.188Z,65.17
2023-05-18T05:27:37.523Z,64.94
2023-05-18T05:30:11.727Z,65.25
2023-05-18T05:32:43.059Z,65.04
2023-05-18T05:35:13.945Z,64.66
2023-05-18T05:37:44.998Z,64.20
2023-05-18T05:40:15.756Z,64.52
2023-05-18T05:42:48.521Z,64.02
2023-05-18T05:45:21.456Z,64.27
2023-05-18T05:47:55.782Z,62.95
2023-05-18T05:50:27.884Z,63.38
2023-05-18T05:53:01.078Z,62.52
2023-05-18T05:55:33.928Z,63.56
2023-05-18T05:58:05.582Z,61.73
2023-05-18T06:00:38.753Z,60.63
2023-05-18T06:03:09.053Z,59.98
2023-05-18T06:05:42.908Z,58.83
2023-05-18T06:08:16.000Z,58.97
2023-05-18T06:10:46.547Z,58.36
2023-05-18T06:13:16.893Z,58.76
2023-05-18T06:15:58.053Z,58.32
2023-05-18T06:18:28.430Z,58.00
2023-05-18T06:21:03.671Z,57.34
2023-05-18T06:23:33.968Z,56.99
2023-05-18T06:26:07.121Z,54.72
2023-05-18T06:29:15.701Z,55.19
2023-05-18T06:32:06.306Z,52.97
2023-05-18T06:34:42.834Z,52.62
2023-05-18T06:37:13.825Z,53.83
2023-05-18T06:39:44.136Z,52.46
2023-05-18T06:42:14.612Z,51.55
2023-05-18T06:44:54.299Z,51.93
2023-05-18T06:47:42.713Z,52.45
2023-05-18T06:50:13.803Z,50.95
2023-05-18T06:52:44.017Z,51.61
2023-05-18T06:55:15.562Z,48.57
2023-05-18T06:57:46.543Z,47.68
2023-05-18T07:00:17.544Z,46.40
2023-05-18T07:02:50.384Z,46.68
2023-05-18T07:05:21.824Z,45.41
2023-05-18T07:07:52.275Z,45.78
2023-05-18T07:10:22.871Z,45.93
2023-05-18T07:12:53.249Z,44.57
2023-05-18T07:15:26.012Z,45.19
2023-05-18T07:17:59.358Z,45.27
2023-05-18T07:20:29.911Z,46.18
2023-05-18T07:23:00.123Z,44.20
2023-05-18T07:25:31.273Z,43.94
2023-05-18T07:28:01.666Z,43.00
2023-05-18T07:30:31.898Z,44.00
2023-05-18T07:33:04.852Z,43.65
2023-05-18T07:35:35.135Z,43.57
2023-05-18T07:38:05.378Z,44.99
2023-05-18T07:40:35.655Z,42.84
2023-05-18T07:43:05.979Z,43.35
2023-05-18T07:45:36.171Z,43.25
2023-05-18T07:48:09.224Z,42.85
2023-05-18T07:50:39.563Z,42.36
2023-05-18T07:53:10.777Z,43.13
2023-05-18T07:55:42.350Z,42.10
2023-05-18T07:58:13.605Z,41.98
2023-05-18T08:00:44.626Z,39.12
2023-05-18T08:03:17.596Z,39.94
2023-05-18T08:05:47.827Z,40.93
2023-05-18T08:08:18.974Z,38.84
2023-05-18T08:10:49.272Z,39.97
2023-05-18T08:13:19.472Z,40.34
2023-05-18T08:15:59.207Z,40.84
2023-05-18T08:18:42.684Z,39.31
2023-05-18T08:21:12.862Z,38.70
2023-05-18T08:23:43.096Z,38.09
2023-05-18T08:26:14.161Z,37.08
2023-05-18T08:28:45.469Z,39.47
2023-05-18T08:31:15.943Z,39.28
2023-05-18T08:33:48.894Z,39.62
2023-05-18T08:36:19.937Z,39.23
2023-05-18T08:38:50.187Z,39.57
2023-05-18T08:41:24.115Z,39.74
2023-05-18T08:44:00.598Z,39.68
2023-05-18T08:46:33.849Z,40.39
2023-05-18T08:49:08.527Z,41.23
2023-05-18T08:51:41.590Z,40.33
2023-05-18T08:54:12.282Z,39.99
2023-05-18T08:56:42.703Z,39.75
2023-05-18T08:59:14.874Z,36.57
2023-05-18T09:01:45.289Z,34.71
2023-05-18T09:04:18.301Z,34.70
2023-05-18T09:06:48.750Z,34.51
2023-05-18T09:09:19.179Z,34.71
2023-05-18T09:11:50.380Z,35.75
2023-05-18T09:14:23.283Z,34.72
2023-05-18T09:16:53.536Z,37.94
2023-05-18T09:19:27.228Z,36.42
2023-05-18T09:21:57.624Z,35.43
2023-05-18T09:24:27.903Z,35.51
2023-05-18T09:26:58.132Z,35.78
2023-05-18T09:29:28.445Z,36.24
2023-05-18T09:31:58.858Z,36.21
2023-05-18T09:34:42.613Z,36.07
2023-05-18T09:37:13.008Z,36.61
2023-05-18T09:39:44.539Z,36.09
2023-05-18T09:42:15.253Z,36.79
2023-05-18T09:44:46.480Z,34.84
2023-05-18T09:47:16.803Z,36.27
2023-05-18T09:49:49.801Z,35.08
2023-05-18T09:52:20.150Z,34.91
2023-05-18T09:54:56.473Z,35.10
2023-05-18T09:57:26.795Z,34.92
2023-05-18T09:59:59.567Z,35.49
2023-05-18T10:02:29.873Z,35.59
2023-05-18T10:05:02.871Z,35.34
2023-05-18T10:07:33.242Z,35.70
2023-05-18T10:10:07.824Z,35.78
2023-05-18T10:12:42.443Z,36.46
2023-05-18T10:15:13.765Z,35.06
2023-05-18T10:17:46.656Z,34.63
2023-05-18T10:20:21.673Z,34.36
2023-05-18T10:22:52.433Z,33.80
2023-05-18T10:25:24.290Z,33.27
2023-05-18T10:27:59.247Z,34.35
2023-05-18T10:30:30.284Z,33.86
2023-05-18T10:33:01.701Z,33.57
2023-05-18T10:35:35.564Z,33.82
2023-05-18T10:38:08.853Z,33.81
2023-05-18T10:40:39.549Z,33.69
2023-05-18T10:43:11.018Z,33.37
2023-05-18T10:45:41.559Z,33.00
2023-05-18T10:48:12.904Z,30.93
2023-05-18T10:50:46.358Z,32.83
2023-05-18T10:53:18.376Z,33.60
2023-05-18T10:55:48.818Z,34.09
2023-05-18T10:58:28.696Z,31.71
2023-05-18T11:01:01.760Z,31.72
2023-05-18T11:03:33.103Z,31.39
2023-05-18T11:06:11.271Z,31.44
2023-05-18T11:08:50.680Z,31.10
2023-05-18T11:11:22.160Z,29.77
2023-05-18T11:13:56.875Z,29.61
2023-05-18T11:16:36.744Z,30.62
2023-05-18T11:19:09.509Z,30.21
2023-05-18T11:21:57.601Z,29.25
2023-05-18T11:24:29.490Z,29.42
2023-05-18T11:27:01.359Z,26.98
2023-05-18T11:29:37.112Z,26.07
2023-05-18T11:32:08.324Z,25.74
2023-05-18T11:34:45.603Z,26.14
2023-05-18T11:37:20.330Z,27.34
2023-05-18T11:40:01.116Z,25.07
2023-05-18T11:42:35.890Z,25.36
2023-05-18T11:45:09.949Z,25.90
2023-05-18T11:47:41.557Z,26.12
2023-05-18T11:50:13.507Z,25.22
2023-05-18T11:52:55.205Z,24.25
2023-05-18T11:55:25.771Z,22.22
2023-05-18T11:57:56.393Z,23.51
2023-05-18T12:00:27.410Z,22.26
2023-05-18T12:02:59.828Z,22.33
2023-05-18T12:05:34.492Z,21.03
2023-05-18T12:08:07.903Z,22.72
2023-05-18T12:10:39.998Z,22.76
2023-05-18T12:13:11.198Z,22.07
2023-05-18T12:15:42.458Z,22.51
2023-05-18T12:18:12.787Z,20.74
2023-05-18T12:20:43.892Z,20.75
2023-05-18T12:23:16.737Z,21.09
2023-05-18T12:25:51.018Z,21.08
2023-05-18T12:28:21.356Z,21.69
2023-05-18T12:30:51.662Z,21.74
2023-05-18T12:33:26.921Z,22.58
2023-05-18T12:35:58.201Z,20.90
2023-05-18T12:38:33.331Z,21.06
2023-05-18T12:41:03.751Z,20.81
2023-05-18T12:43:37.638Z,20.28
2023-05-18T12:46:08.710Z,19.56
2023-05-18T12:48:39.326Z,20.21
2023-05-18T12:51:10.072Z,20.34
2023-05-18T12:53:47.503Z,21.03
2023-05-18T12:56:18.441Z,22.84
2023-05-18T12:58:59.622Z,23.41
2023-05-18T13:01:30.058Z,22.43
2023-05-18T13:04:01.412Z,21.71
2023-05-18T13:06:32.648Z,22.52
2023-05-18T13:09:05.938Z,21.52
2023-05-18T13:11:36.251Z,21.97
2023-05-18T13:14:07.886Z,21.51
2023-05-18T13:16:41.685Z,21.24
2023-05-18T13:19:13.194Z,21.70
2023-05-18T13:21:43.464Z,22.69
2023-05-18T13:24:16.917Z,22.77
2023-05-18T13:26:50.271Z,22.78
2023-05-18T13:29:21.763Z,22.14
2023-05-18T13:31:52.205Z,21.89
2023-05-18T13:34:25.016Z,22.41
2023-05-18T13:36:55.750Z,21.17
2023-05-18T13:39:29.437Z,19.87
2023-05-18T13:42:03.220Z,19.86
2023-05-18T13:44:33.671Z,19.18
2023-05-18T13:47:03.961Z,17.83
2023-05-18T13:49:34.242Z,18.20
2023-05-18T13:52:04.616Z,19.30
2023-05-18T13:54:38.527Z,21.09
2023-05-18T13:57:09.592Z,21.92
2023-05-18T13:59:39.891Z,23.53
2023-05-18T14:02:10.453Z,23.65
2023-05-18T14:04:43.093Z,23.25
2023-05-18T14:07:13.294Z,22.03
2023-05-18T14:09:46.237Z,24.24
2023-05-18T14:12:16.544Z,24.68
2023-05-18T14:14:46.740Z,25.55
2023-05-18T14:17:17.042Z,24.27
2023-05-18T14:19:47.238Z,21.70
2023-05-18T14:23:24.546Z,20.18
2023-05-18T14:25:55.098Z,21.44
2023-05-18T14:28:25.651Z,23.29
2023-05-18T14:30:56.352Z,24.83
2023-05-18T14:33:26.962Z,25.21
2023-05-18T14:35:58.473Z,23.59
2023-05-18T14:38:31.564Z,22.44
2023-05-18T14:41:02.044Z,22.13
2023-05-18T14:43:32.507Z,22.30
2023-05-18T14:48:36.675Z,23.98
2023-05-18T14:51:07.461Z,25.02
2023-05-18T14:53:40.632Z,24.83
2023-05-18T14:56:11.527Z,25.53
2023-05-18T14:58:42.030Z,25.92
2023-05-18T15:01:12.706Z,26.11
2023-05-18T15:03:43.487Z,25.99
2023-05-18T15:06:14.148Z,26.14
2023-05-18T15:08:47.486Z,25.46
2023-05-18T15:11:18.002Z,25.88
2023-05-18T15:13:49.397Z,26.21
2023-05-18T15:16:20.143Z,27.16
2023-05-18T15:18:50.719Z,28.04
2023-05-18T15:21:21.288Z,28.73
2023-05-18T15:23:54.054Z,28.45
2023-05-18T15:26:24.737Z,29.50
2023-05-18T15:28:55.216Z,28.89
2023-05-18T15:31:25.753Z,28.42
2023-05-18T15:33:55.979Z,28.52
2023-05-18T15:36:27.427Z,29.43
2023-05-18T15:39:00.569Z,29.77
2023-05-18T15:41:33.981Z,29.94
2023-05-18T15:44:05.087Z,32.93
2023-05-18T15:46:36.057Z,32.33
2023-05-18T15:49:06.925Z,31.19
2023-05-18T15:51:37.410Z,30.94
2023-05-18T15:54:10.897Z,30.80
2023-05-18T15:56:41.422Z,32.01
2023-05-18T15:59:12.085Z,32.75
2023-05-18T16:01:42.729Z,31.59
2023-05-18T16:04:13.362Z,31.44
2023-05-18T16:06:44.452Z,31.38
2023-05-18T16:09:17.714Z,31.53
2023-05-18T16:11:48.218Z,31.39
2023-05-18T16:14:18.685Z,32.78
2023-05-18T16:16:49.429Z,32.93
2023-05-18T16:19:20.759Z,32.71
2023-05-18T16:21:51.289Z,33.14
2023-05-18T16:24:24.378Z,33.16
2023-05-18T16:26:54.875Z,33.12
2023-05-18T16:29:25.314Z,33.66
2023-05-18T16:31:55.981Z,34.46
2023-05-18T16:34:26.205Z,33.97
2023-05-18T16:36:56.766Z,34.03
2023-05-18T16:39:30.038Z,34.17
2023-05-18T16:42:01.056Z,34.28
2023-05-18T16:44:33.115Z,34.39
2023-05-18T16:47:03.675Z,34.46
2023-05-18T16:49:34.184Z,35.37
2023-05-18T16:52:05.372Z,34.74
2023-05-18T16:54:38.667Z,35.05
2023-05-18T16:57:13.329Z,34.47
2023-05-18T16:59:43.934Z,34.74
2023-05-18T17:02:15.821Z,35.24
2023-05-18T17:04:50.087Z,35.32
2023-05-18T17:07:21.941Z,36.38
2023-05-18T17:09:55.125Z,36.23
2023-05-18T17:12:25.608Z,35.66
2023-05-18T17:14:56.052Z,35.92
2023-05-18T17:17:26.999Z,36.38
2023-05-18T17:19:57.549Z,36.42
2023-05-18T17:22:28.071Z,36.44
2023-05-18T17:25:01.240Z,36.92
2023-05-18T17:27:32.296Z,37.61
2023-05-18T17:30:03.007Z,37.75
2023-05-18T17:32:33.559Z,37.69
2023-05-18T17:35:05.726Z,37.88
2023-05-18T17:37:36.233Z,38.23
2023-05-18T17:40:12.519Z,38.10
2023-05-18T17:42:43.045Z,38.44
2023-05-18T17:45:14.342Z,39.01
2023-05-18T17:47:46.218Z,38.53
2023-05-18T17:50:17.142Z,39.09
2023-05-18T17:52:47.265Z,39.03
2023-05-18T17:55:20.730Z,39.57
2023-05-18T17:57:51.288Z,39.55
2023-05-18T18:00:22.917Z,39.95
2023-05-18T18:02:54.087Z,40.11
2023-05-18T18:05:24.675Z,39.95
2023-05-18T18:07:55.161Z,40.02
2023-05-18T18:10:28.425Z,40.43
2023-05-18T18:12:58.944Z,40.69
2023-05-18T18:15:29.469Z,40.97
2023-05-18T18:18:00.020Z,41.47
2023-05-18T18:20:31.677Z,41.72
2023-05-18T18:23:02.328Z,41.76
2023-05-18T18:25:35.516Z,42.01
2023-05-18T18:28:08.219Z,42.06
2023-05-18T18:30:38.786Z,41.97
2023-05-18T18:33:09.433Z,42.30
2023-05-18T18:35:40.003Z,42.42
2023-05-18T18:38:11.095Z,42.57
2023-05-18T18:40:44.581Z,42.73
2023-05-18T18:43:15.293Z,42.52
2023-05-18T18:45:45.843Z,42.97
2023-05-18T18:48:16.372Z,42.53
2023-05-18T18:50:46.900Z,42.62
2023-05-18T18:53:17.501Z,42.69
2023-05-18T18:55:50.765Z,42.88
2023-05-18T18:58:24.256Z,42.89
2023-05-18T19:00:54.840Z,43.12
2023-05-18T19:03:26.262Z,43.07
2023-05-18T19:05:56.943Z,43.58
2023-05-18T19:08:27.512Z,43.09
2023-05-18T19:11:00.850Z,43.42
2023-05-18T19:13:31.327Z,43.66
2023-05-18T19:16:02.020Z,44.08
2023-05-18T19:18:32.550Z,44.13
2023-05-18T19:21:03.077Z,44.45
2023-05-18T19:23:33.537Z,44.23
2023-05-18T19:26:07.151Z,43.91
2023-05-18T19:28:37.739Z,44.16
2023-05-18T19:31:10.388Z,44.49
2023-05-18T19:33:40.883Z,44.68
2023-05-18T19:36:11.705Z,45.11
2023-05-18T19:38:42.399Z,44.81
2023-05-18T19:41:15.744Z,45.35
2023-05-18T19:43:46.220Z,45.94
2023-05-18T19:46:17.057Z,46.09
2023-05-18T19:48:47.251Z,46.02
2023-05-18T19:51:18.730Z,46.13
2023-05-18T19:53:49.504Z,46.65
2023-05-18T19:56:24.314Z,46.21
2023-05-18T19:58:54.878Z,46.16
2023-05-18T20:01:25.521Z,46.27
2023-05-18T20:03:57.051Z,46.16
2023-05-18T20:06:28.308Z,46.47
2023-05-18T20:08:58.935Z,46.79
2023-05-18T20:11:32.088Z,46.91
2023-05-18T20:14:03.310Z,45.73
2023-05-18T20:16:34.417Z,46.45
2023-05-18T20:19:05.209Z,46.18
2023-05-18T20:21:36.120Z,45.88
2023-05-18T20:24:06.817Z,46.31
2023-05-18T20:26:40.018Z,46.22
2023-05-18T20:29:10.894Z,46.25
2023-05-18T20:31:41.584Z,46.35
2023-05-18T20:34:12.083Z,46.33
2023-05-18T20:36:42.707Z,46.45
2023-05-18T20:39:13.370Z,46.69
2023-05-18T20:41:47.984Z,47.01
2023-05-18T20:44:18.554Z,46.72
2023-05-18T20:46:49.999Z,46.63
2023-05-18T20:49:21.840Z,46.68
2023-05-18T20:51:52.692Z,46.44
2023-05-18T20:54:24.143Z,46.83
2023-05-18T20:56:57.524Z,47.11
2023-05-18T20:59:28.138Z,47.40
2023-05-18T21:01:59.375Z,46.55
2023-05-18T21:04:30.939Z,46.77
2023-05-18T21:07:01.547Z,46.76
2023-05-18T21:09:32.344Z,46.52
2023-05-18T21:12:05.846Z,47.05
2023-05-18T21:14:36.370Z,47.08
2023-05-18T21:17:07.095Z,46.98
2023-05-18T21:19:37.619Z,46.83
2023-05-18T21:22:08.479Z,47.38
2023-05-18T21:24:39.032Z,47.56
2023-05-18T21:27:12.318Z,47.88
2023-05-18T21:29:43.022Z,48.38
2023-05-18T21:32:14.197Z,48.49
2023-05-18T21:34:44.815Z,49.01
2023-05-18T21:37:15.413Z,49.04
2023-05-18T21:39:46.979Z,49.29
2023-05-18T21:42:20.187Z,48.81
2023-05-18T21:44:50.911Z,49.59
2023-05-18T21:47:21.420Z,49.73
2023-05-18T21:49:51.955Z,50.35
2023-05-18T21:52:22.514Z,49.43
2023-05-18T21:54:53.123Z,49.61
2023-05-18T21:57:26.299Z,49.60
2023-05-18T21:59:56.812Z,49.71
2023-05-18T22:02:27.405Z,49.97
2023-05-18T22:04:57.933Z,50.06
2023-05-18T22:07:28.797Z,50.10
2023-05-18T22:09:59.320Z,50.52
2023-05-18T22:12:33.445Z,51.04
2023-05-18T22:15:03.971Z,50.67
2023-05-18T22:17:34.556Z,50.91
2023-05-18T22:20:06.049Z,50.46
2023-05-18T22:22:36.585Z,50.49
2023-05-18T22:25:07.561Z,50.61
2023-05-18T22:27:40.358Z,50.22
2023-05-18T22:30:13.811Z,49.93
2023-05-18T22:32:44.717Z,50.13
2023-05-18T22:35:14.916Z,50.11
2023-05-18T22:37:45.472Z,50.38
2023-05-18T22:40:16.868Z,50.81
2023-05-18T22:42:50.027Z,50.53
2023-05-18T22:45:20.867Z,50.44
2023-05-18T22:47:51.677Z,50.40
2023-05-18T22:50:22.483Z,50.91
2023-05-18T22:52:53.239Z,50.96
2023-05-18T22:55:23.941Z,51.07
2023-05-18T22:57:57.061Z,51.18
2023-05-18T23:00:27.776Z,50.37
2023-05-18T23:02:58.427Z,50.27
2023-05-18T23:05:29.389Z,50.38
2023-05-18T23:08:02.227Z,50.67
2023-05-18T23:10:33.281Z,51.08
2023-05-18T23:13:06.658Z,51.48
2023-05-18T23:15:37.331Z,51.21
2023-05-18T23:18:09.493Z,51.02
2023-05-18T23:20:40.129Z,51.40
2023-05-18T23:23:10.751Z,50.90
2023-05-18T23:25:41.272Z,51.59
2023-05-18T23:28:14.382Z,51.50
2023-05-18T23:30:44.996Z,51.99
2023-05-18T23:33:17.766Z,51.73
2023-05-18T23:35:49.527Z,51.94
2023-05-18T23:38:22.874Z,52.13
2023-05-18T23:40:56.446Z,51.82
2023-05-18T23:43:30.735Z,51.90
2023-05-18T23:46:02.495Z,52.09
2023-05-18T23:48:34.386Z,52.07
2023-05-18T23:51:07.350Z,52.72
2023-05-18T23:53:38.515Z,52.60
2023-05-18T23:56:12.547Z,52.56
2023-05-18T23:58:48.693Z,53.58
